createdAt,value
2017-05-28T00:00:20.837Z,0
2017-05-28T00:01:36.000Z,0
2017-05-28T00:02:51.600Z,0
2017-05-28T00:04:05.778Z,0
2017-05-28T00:05:19.746Z,0
2017-05-28T00:06:35.225Z,0
2017-05-28T00:07:50.885Z,0
2017-05-28T00:09:06.585Z,0
2017-05-28T00:10:22.079Z,0
2017-05-28T00:11:37.512Z,0
2017-05-28T00:12:51.499Z,0
2017-05-28T00:14:07.200Z,0
2017-05-28T00:15:22.623Z,0
2017-05-28T00:16:36.632Z,0
2017-05-28T00:17:52.160Z,0
2017-05-28T00:19:07.893Z,0
2017-05-28T00:20:23.344Z,0
2017-05-28T00:21:38.779Z,0
2017-05-28T00:22:53.218Z,0
2017-05-28T00:24:09.070Z,0
2017-05-28T00:25:24.516Z,0
2017-05-28T00:26:39.957Z,0
2017-05-28T00:28:26.175Z,0
2017-05-28T00:29:41.532Z,0
2017-05-28T00:30:56.958Z,0
2017-05-28T00:32:12.434Z,0
2017-05-28T00:33:27.891Z,0
2017-05-28T00:34:43.491Z,0
2017-05-28T00:35:59.032Z,0
2017-05-28T00:37:13.130Z,0
2017-05-28T00:38:28.560Z,0
2017-05-28T00:39:44.329Z,0
2017-05-28T00:40:59.797Z,0
2017-05-28T00:42:13.924Z,0
2017-05-28T00:43:29.393Z,0
2017-05-28T00:44:43.726Z,0
2017-05-28T00:45:59.170Z,0
2017-05-28T00:47:14.622Z,0
2017-05-28T00:48:30.115Z,0
2017-05-28T00:49:45.712Z,0
2017-05-28T00:50:59.714Z,0
2017-05-28T00:52:15.177Z,0
2017-05-28T00:53:30.657Z,0
2017-05-28T00:54:46.314Z,0
2017-05-28T00:56:01.753Z,0
2017-05-28T00:57:17.216Z,0
2017-05-28T00:58:32.696Z,0
2017-05-28T00:59:48.380Z,0
2017-05-28T01:01:03.850Z,0
2017-05-28T01:02:19.267Z,0
2017-05-28T01:03:34.750Z,0
2017-05-28T01:04:50.525Z,0
2017-05-28T01:06:05.928Z,0
2017-05-28T01:07:21.420Z,0
2017-05-28T01:08:36.866Z,0
2017-05-28T01:09:52.527Z,0
2017-05-28T01:11:08.002Z,0
2017-05-28T01:12:23.493Z,0
2017-05-28T01:13:38.648Z,0
2017-05-28T01:14:54.285Z,0
2017-05-28T01:16:08.420Z,0
2017-05-28T01:17:23.867Z,0
2017-05-28T01:18:36.710Z,0
2017-05-28T01:19:52.378Z,0
2017-05-28T01:21:07.785Z,0
2017-05-28T01:22:23.245Z,0
2017-05-28T01:23:38.715Z,0
2017-05-28T01:24:54.331Z,0
2017-05-28T01:26:08.513Z,0
2017-05-28T01:27:23.982Z,0
2017-05-28T01:28:39.603Z,0
2017-05-28T01:29:55.224Z,0
2017-05-28T01:31:10.673Z,0
2017-05-28T01:32:26.222Z,0
2017-05-28T01:33:40.404Z,0
2017-05-28T01:34:56.032Z,0
2017-05-28T01:36:10.160Z,0
2017-05-28T01:37:22.972Z,0
2017-05-28T01:38:38.450Z,0
2017-05-28T01:39:52.809Z,0
2017-05-28T01:41:08.251Z,0
2017-05-28T01:42:22.807Z,0
2017-05-28T01:43:38.383Z,0
2017-05-28T01:44:54.172Z,0
2017-05-28T01:46:09.611Z,0
2017-05-28T01:47:25.293Z,0
2017-05-28T01:48:40.771Z,0
2017-05-28T01:49:56.483Z,0
2017-05-28T01:51:12.294Z,0
2017-05-28T01:52:27.756Z,0
2017-05-28T01:53:43.228Z,0
2017-05-28T01:54:58.825Z,0
2017-05-28T01:56:14.529Z,0
2017-05-28T01:57:29.998Z,0
2017-05-28T01:58:45.393Z,0
2017-05-28T01:59:59.387Z,0
2017-05-28T02:01:14.871Z,0
2017-05-28T02:02:30.354Z,0
2017-05-28T02:03:46.047Z,0
2017-05-28T02:05:01.687Z,0
2017-05-28T02:06:15.684Z,0
2017-05-28T02:07:31.122Z,0
2017-05-28T02:08:45.545Z,0
2017-05-28T02:09:59.711Z,0
2017-05-28T02:11:14.085Z,0
2017-05-28T02:12:29.753Z,0
2017-05-28T02:13:43.903Z,0
2017-05-28T02:14:58.010Z,0
2017-05-28T02:16:13.566Z,0
2017-05-28T02:17:29.057Z,0
2017-05-28T02:18:44.570Z,0
2017-05-28T02:20:00.107Z,0
2017-05-28T02:21:14.352Z,0
2017-05-28T02:22:29.810Z,0
2017-05-28T02:23:43.978Z,0
2017-05-28T02:24:59.490Z,0
2017-05-28T02:26:15.088Z,0
2017-05-28T02:27:30.567Z,0
2017-05-28T02:28:45.946Z,0
2017-05-28T02:30:01.400Z,0
2017-05-28T02:31:17.070Z,0
2017-05-28T02:32:32.614Z,0
2017-05-28T02:33:46.618Z,0
2017-05-28T02:34:59.283Z,0
2017-05-28T02:36:14.842Z,0
2017-05-28T02:37:30.382Z,0
2017-05-28T02:38:45.888Z,0
2017-05-28T02:40:01.303Z,0
2017-05-28T02:41:14.275Z,0
2017-05-28T02:42:29.738Z,0
2017-05-28T02:43:45.209Z,0
2017-05-28T02:45:00.631Z,0
2017-05-28T02:46:14.999Z,0
2017-05-28T02:47:30.464Z,0
2017-05-28T02:48:45.886Z,0
2017-05-28T02:50:01.324Z,0
2017-05-28T02:51:15.691Z,0
2017-05-28T02:52:29.824Z,5
2017-05-28T02:53:43.919Z,5
2017-05-28T02:54:59.368Z,5
2017-05-28T02:56:14.949Z,5
2017-05-28T02:57:30.453Z,5
2017-05-28T02:58:44.451Z,5
2017-05-28T02:59:59.890Z,10
2017-05-28T03:01:14.056Z,10
2017-05-28T03:02:29.732Z,10
2017-05-28T03:03:43.917Z,10
2017-05-28T03:04:59.375Z,10
2017-05-28T03:06:13.185Z,15
2017-05-28T03:07:28.865Z,15
2017-05-28T03:08:44.580Z,15
2017-05-28T03:10:00.033Z,15
2017-05-28T03:11:15.455Z,20
2017-05-28T03:12:29.834Z,20
2017-05-28T03:13:45.339Z,20
2017-05-28T03:15:00.757Z,25
2017-05-28T03:16:16.199Z,25
2017-05-28T03:17:30.568Z,25
2017-05-28T03:18:45.965Z,25
2017-05-28T03:20:00.129Z,30
2017-05-28T03:21:15.519Z,30
2017-05-28T03:22:31.205Z,30
2017-05-28T03:23:46.906Z,35
2017-05-28T03:25:02.544Z,35
2017-05-28T03:26:18.044Z,40
2017-05-28T03:27:33.883Z,40
2017-05-28T03:28:49.288Z,40
2017-05-28T03:30:04.788Z,45
2017-05-28T03:31:20.179Z,45
2017-05-28T03:32:35.826Z,45
2017-05-28T03:33:49.765Z,50
2017-05-28T03:35:04.091Z,50
2017-05-28T03:36:18.095Z,50
2017-05-28T03:37:33.737Z,55
2017-05-28T03:38:47.909Z,55
2017-05-28T03:40:03.352Z,60
2017-05-28T03:41:17.507Z,60
2017-05-28T03:42:33.156Z,60
2017-05-28T03:43:48.591Z,65
2017-05-28T03:45:04.023Z,65
2017-05-28T03:46:19.469Z,65
2017-05-28T03:47:35.132Z,70
2017-05-28T03:48:50.583Z,70
2017-05-28T03:50:04.700Z,75
2017-05-28T03:51:19.794Z,75
2017-05-28T03:52:35.447Z,75
2017-05-28T03:53:49.594Z,80
2017-05-28T03:55:35.916Z,80
2017-05-28T03:56:50.008Z,85
2017-05-28T03:58:05.653Z,85
2017-05-28T03:59:21.116Z,90
2017-05-28T04:00:36.602Z,90
2017-05-28T04:01:52.012Z,90
2017-05-28T04:03:07.585Z,95
2017-05-28T04:04:23.045Z,95
2017-05-28T04:05:38.729Z,100
2017-05-28T04:06:54.161Z,100
2017-05-28T04:08:09.806Z,100
2017-05-28T04:09:25.224Z,105
2017-05-28T04:10:40.659Z,105
2017-05-28T04:11:56.096Z,110
2017-05-28T04:13:11.692Z,110
2017-05-28T04:14:27.213Z,110
2017-05-28T04:15:42.645Z,115
2017-05-28T04:16:58.085Z,115
2017-05-28T04:18:13.735Z,120
2017-05-28T04:19:29.174Z,120
2017-05-28T04:20:44.642Z,120
2017-05-28T04:22:00.394Z,120
2017-05-28T04:23:15.932Z,120
2017-05-28T04:24:31.343Z,125
2017-05-28T04:25:46.716Z,125
2017-05-28T04:27:02.086Z,130
2017-05-28T04:28:17.749Z,130
2017-05-28T04:29:33.157Z,130
2017-05-28T04:30:48.635Z,135
2017-05-28T04:32:04.078Z,135
2017-05-28T04:33:19.710Z,140
2017-05-28T04:34:35.097Z,140
2017-05-28T04:35:50.485Z,140
2017-05-28T04:37:05.918Z,145
2017-05-28T04:38:21.500Z,150
2017-05-28T04:39:34.367Z,145
2017-05-28T04:40:49.815Z,150
2017-05-28T04:42:05.203Z,150
2017-05-28T04:43:20.879Z,155
2017-05-28T04:44:34.957Z,155
2017-05-28T04:45:50.415Z,155
2017-05-28T04:47:05.882Z,160
2017-05-28T04:48:21.700Z,160
2017-05-28T04:49:36.076Z,160
2017-05-28T04:50:49.842Z,165
2017-05-28T04:52:05.255Z,165
2017-05-28T04:53:20.926Z,165
2017-05-28T04:54:36.398Z,170
2017-05-28T04:55:51.864Z,170
2017-05-28T04:57:07.363Z,170
2017-05-28T04:58:23.031Z,170
2017-05-28T04:59:37.287Z,170
2017-05-28T05:00:52.933Z,175
2017-05-28T05:02:08.344Z,175
2017-05-28T05:03:24.296Z,175
2017-05-28T05:04:39.761Z,180
2017-05-28T05:05:55.150Z,180
2017-05-28T05:07:10.627Z,185
2017-05-28T05:08:26.296Z,185
2017-05-28T05:09:40.267Z,185
2017-05-28T05:10:53.031Z,195
2017-05-28T05:12:08.499Z,190
2017-05-28T05:13:24.143Z,195
2017-05-28T05:14:39.904Z,195
2017-05-28T05:15:55.398Z,195
2017-05-28T05:17:10.848Z,200
2017-05-28T05:18:26.542Z,205
2017-05-28T05:19:42.005Z,205
2017-05-28T05:20:57.397Z,210
2017-05-28T05:22:11.562Z,210
2017-05-28T05:23:25.546Z,210
2017-05-28T05:24:39.715Z,215
2017-05-28T05:25:53.824Z,215
2017-05-28T05:27:08.016Z,220
2017-05-28T05:28:23.464Z,225
2017-05-28T05:29:39.060Z,225
2017-05-28T05:30:53.103Z,230
2017-05-28T05:32:08.519Z,230
2017-05-28T05:33:23.974Z,235
2017-05-28T05:34:39.716Z,235
2017-05-28T05:35:54.156Z,235
2017-05-28T05:37:08.262Z,235
2017-05-28T05:38:23.675Z,235
2017-05-28T05:39:39.563Z,240
2017-05-28T05:40:53.649Z,240
2017-05-28T05:42:09.023Z,240
2017-05-28T05:43:24.705Z,240
2017-05-28T05:44:40.292Z,240
2017-05-28T05:45:55.735Z,240
2017-05-28T05:47:09.745Z,240
2017-05-28T05:48:25.189Z,245
2017-05-28T05:49:39.635Z,245
2017-05-28T05:50:54.129Z,245
2017-05-28T05:52:08.227Z,245
2017-05-28T05:53:23.643Z,245
2017-05-28T05:54:39.289Z,245
2017-05-28T05:55:54.672Z,245
2017-05-28T05:57:08.779Z,250
2017-05-28T05:58:24.435Z,250
2017-05-28T05:59:40.243Z,245
2017-05-28T06:00:55.740Z,245
2017-05-28T06:02:10.823Z,250
2017-05-28T06:03:26.209Z,250
2017-05-28T06:04:41.877Z,250
2017-05-28T06:05:56.042Z,250
2017-05-28T06:07:11.452Z,250
2017-05-28T06:08:26.960Z,255
2017-05-28T06:09:42.644Z,255
2017-05-28T06:10:58.070Z,245
2017-05-28T06:12:11.814Z,245
2017-05-28T06:13:25.986Z,255
2017-05-28T06:14:41.694Z,260
2017-05-28T06:15:57.100Z,240
2017-05-28T06:17:12.922Z,255
2017-05-28T06:18:26.944Z,255
2017-05-28T06:19:41.043Z,255
2017-05-28T06:20:55.643Z,255
2017-05-28T06:22:09.744Z,255
2017-05-28T06:23:23.831Z,255
2017-05-28T06:24:37.979Z,255
2017-05-28T06:25:53.653Z,255
2017-05-28T06:27:09.097Z,250
2017-05-28T06:28:24.576Z,245
2017-05-28T06:29:40.018Z,255
2017-05-28T06:30:55.635Z,265
2017-05-28T06:32:09.430Z,260
2017-05-28T06:33:23.441Z,265
2017-05-28T06:34:38.922Z,265
2017-05-28T06:35:54.519Z,265
2017-05-28T06:37:09.979Z,265
2017-05-28T06:38:25.470Z,265
2017-05-28T06:39:40.889Z,270
2017-05-28T06:40:55.069Z,270
2017-05-28T06:42:10.557Z,270
2017-05-28T06:43:26.302Z,270
2017-05-28T06:44:41.704Z,270
2017-05-28T06:45:55.891Z,270
2017-05-28T06:47:11.347Z,270
2017-05-28T06:48:26.816Z,275
2017-05-28T06:49:42.254Z,275
2017-05-28T06:50:57.960Z,275
2017-05-28T06:52:13.454Z,280
2017-05-28T06:53:28.871Z,280
2017-05-28T06:54:44.298Z,280
2017-05-28T06:55:59.982Z,280
2017-05-28T06:57:15.455Z,280
2017-05-28T06:58:30.954Z,280
2017-05-28T06:59:46.609Z,280
2017-05-28T07:01:02.256Z,285
2017-05-28T07:02:17.664Z,290
2017-05-28T07:03:33.095Z,295
2017-05-28T07:04:47.372Z,295
2017-05-28T07:06:02.993Z,295
2017-05-28T07:07:18.373Z,300
2017-05-28T07:08:32.803Z,300
2017-05-28T07:09:48.463Z,300
2017-05-28T07:11:04.094Z,300
2017-05-28T07:12:19.527Z,305
2017-05-28T07:13:35.014Z,305
2017-05-28T07:14:48.811Z,305
2017-05-28T07:16:04.438Z,305
2017-05-28T07:17:18.609Z,305
2017-05-28T07:18:34.021Z,310
2017-05-28T07:19:49.479Z,310
2017-05-28T07:21:05.155Z,310
2017-05-28T07:22:20.540Z,315
2017-05-28T07:23:36.407Z,315
2017-05-28T07:24:52.072Z,315
2017-05-28T07:26:07.808Z,315
2017-05-28T07:27:23.264Z,320
2017-05-28T07:28:38.698Z,315
2017-05-28T07:29:54.152Z,315
2017-05-28T07:31:10.108Z,315
2017-05-28T07:32:25.625Z,320
2017-05-28T07:33:41.101Z,330
2017-05-28T07:34:56.626Z,335
2017-05-28T07:36:12.284Z,340
2017-05-28T07:37:27.703Z,350
2017-05-28T07:38:42.146Z,350
2017-05-28T07:39:57.622Z,355
2017-05-28T07:41:11.978Z,360
2017-05-28T07:42:24.813Z,365
2017-05-28T07:43:40.314Z,375
2017-05-28T07:44:54.665Z,390
2017-05-28T07:46:10.305Z,400
2017-05-28T07:47:25.793Z,400
2017-05-28T07:48:41.281Z,410
2017-05-28T07:49:56.982Z,420
2017-05-28T07:51:12.631Z,425
2017-05-28T07:52:26.783Z,430
2017-05-28T07:53:41.514Z,405
2017-05-28T07:54:56.939Z,430
2017-05-28T07:56:12.404Z,430
2017-05-28T07:57:28.054Z,430
2017-05-28T07:58:43.749Z,420
2017-05-28T07:59:59.261Z,385
2017-05-28T08:01:14.715Z,380
2017-05-28T08:02:30.378Z,375
2017-05-28T08:03:45.872Z,410
2017-05-28T08:05:01.277Z,425
2017-05-28T08:06:15.303Z,430
2017-05-28T08:07:31.275Z,440
2017-05-28T08:08:46.827Z,440
2017-05-28T08:10:01.022Z,450
2017-05-28T08:11:16.505Z,465
2017-05-28T08:12:32.145Z,475
2017-05-28T08:13:46.326Z,490
2017-05-28T08:15:01.762Z,500
2017-05-28T08:16:16.085Z,515
2017-05-28T08:17:30.502Z,530
2017-05-28T08:18:46.247Z,550
2017-05-28T08:20:01.776Z,570
2017-05-28T08:21:17.221Z,595
2017-05-28T08:22:31.576Z,615
2017-05-28T08:23:47.066Z,645
2017-05-28T08:25:02.648Z,660
2017-05-28T08:26:18.127Z,680
2017-05-28T08:27:33.738Z,705
2017-05-28T08:28:49.174Z,710
2017-05-28T08:30:04.623Z,735
2017-05-28T08:31:20.047Z,750
2017-05-28T08:32:35.732Z,745
2017-05-28T08:33:49.779Z,770
2017-05-28T08:35:05.240Z,850
2017-05-28T08:36:19.393Z,1225
2017-05-28T08:37:33.910Z,1540
2017-05-28T08:38:49.339Z,1510
2017-05-28T08:40:04.732Z,1750
2017-05-28T08:41:20.213Z,2355
2017-05-28T08:42:35.941Z,2450
2017-05-28T08:43:51.338Z,2675
2017-05-28T08:45:05.838Z,2390
2017-05-28T08:46:21.289Z,1960
2017-05-28T08:47:36.996Z,1480
2017-05-28T08:48:52.568Z,1435
2017-05-28T08:50:07.638Z,2020
2017-05-28T08:51:23.142Z,1715
2017-05-28T08:52:38.801Z,2275
2017-05-28T08:53:54.248Z,2610
2017-05-28T08:55:09.734Z,3025
2017-05-28T08:56:25.135Z,3315
2017-05-28T08:57:40.886Z,3120
2017-05-28T08:58:56.322Z,2550
2017-05-28T09:00:09.338Z,2785
2017-05-28T09:01:24.855Z,2830
2017-05-28T09:02:40.527Z,2875
2017-05-28T09:03:55.947Z,2825
2017-05-28T09:05:11.469Z,3015
2017-05-28T09:06:25.673Z,3010
2017-05-28T09:07:41.355Z,3015
2017-05-28T09:08:56.810Z,3020
2017-05-28T09:10:12.233Z,3170
2017-05-28T09:11:27.692Z,3695
2017-05-28T09:12:43.427Z,3505
2017-05-28T09:13:58.899Z,3510
2017-05-28T09:15:14.405Z,3660
2017-05-28T09:16:29.922Z,3880
2017-05-28T09:17:45.574Z,3910
2017-05-28T09:19:01.076Z,4190
2017-05-28T09:20:16.512Z,4245
2017-05-28T09:21:31.745Z,4240
2017-05-28T09:22:47.405Z,4170
2017-05-28T09:24:02.952Z,3750
2017-05-28T09:25:17.007Z,3865
2017-05-28T09:26:32.465Z,3760
2017-05-28T09:27:46.568Z,3655
2017-05-28T09:29:00.535Z,3605
2017-05-28T09:30:14.767Z,3320
2017-05-28T09:31:30.249Z,3590
2017-05-28T09:32:46.530Z,3755
2017-05-28T09:34:02.097Z,3680
2017-05-28T09:35:17.595Z,3320
2017-05-28T09:36:33.152Z,3130
2017-05-28T09:37:49.108Z,3070
2017-05-28T09:39:04.596Z,3340
2017-05-28T09:40:18.842Z,3660
2017-05-28T09:41:33.016Z,3785
2017-05-28T09:42:47.306Z,4110
2017-05-28T09:44:03.344Z,4420
2017-05-28T09:45:18.888Z,4715
2017-05-28T09:46:34.387Z,4790
2017-05-28T09:47:48.534Z,4525
2017-05-28T09:49:02.930Z,4185
2017-05-28T09:50:18.534Z,3925
2017-05-28T09:51:32.892Z,3840
2017-05-28T09:52:47.118Z,3885
2017-05-28T09:54:01.409Z,3930
2017-05-28T09:55:17.088Z,3815
2017-05-28T09:56:31.357Z,3830
2017-05-28T09:57:47.174Z,3975
2017-05-28T09:59:02.825Z,4075
2017-05-28T10:00:18.391Z,4185
2017-05-28T10:01:33.915Z,4350
2017-05-28T10:02:48.128Z,4365
2017-05-28T10:04:03.757Z,4125
2017-05-28T10:05:19.221Z,4060
2017-05-28T10:06:34.801Z,3825
2017-05-28T10:07:50.315Z,1940
2017-05-28T10:09:05.980Z,4085
2017-05-28T10:10:21.703Z,4150
2017-05-28T10:11:37.211Z,4370
2017-05-28T10:12:52.365Z,4185
2017-05-28T10:14:07.947Z,4350
2017-05-28T10:15:23.450Z,3910
2017-05-28T10:16:38.969Z,3785
2017-05-28T10:17:54.737Z,3145
2017-05-28T10:19:10.458Z,3055
2017-05-28T10:20:25.946Z,2830
2017-05-28T10:21:40.114Z,2880
2017-05-28T10:22:54.228Z,2985
2017-05-28T10:24:10.084Z,3210
2017-05-28T10:25:25.894Z,3390
2017-05-28T10:26:41.400Z,3140
2017-05-28T10:27:56.830Z,3330
2017-05-28T10:29:12.524Z,3445
2017-05-28T10:30:28.039Z,3635
2017-05-28T10:31:43.526Z,3870
2017-05-28T10:32:58.979Z,4330
2017-05-28T10:34:13.364Z,4755
2017-05-28T10:35:28.492Z,5255
2017-05-28T10:36:44.013Z,5140
2017-05-28T10:37:59.702Z,3905
2017-05-28T10:39:15.384Z,2900
2017-05-28T10:40:30.889Z,2450
2017-05-28T10:41:46.395Z,1805
2017-05-28T10:43:01.878Z,1545
2017-05-28T10:44:17.547Z,1425
2017-05-28T10:45:33.045Z,1765
2017-05-28T10:46:48.572Z,2215
2017-05-28T10:48:04.038Z,2500
2017-05-28T10:49:19.759Z,2505
2017-05-28T10:50:35.219Z,2315
2017-05-28T10:51:50.734Z,1995
2017-05-28T10:53:06.198Z,1915
2017-05-28T10:54:21.923Z,1785
2017-05-28T10:55:37.360Z,2355
2017-05-28T10:56:52.879Z,2840
2017-05-28T10:58:08.671Z,3255
2017-05-28T10:59:24.418Z,3540
2017-05-28T11:00:39.877Z,4205
2017-05-28T11:01:55.974Z,4720
2017-05-28T11:03:11.521Z,4845
2017-05-28T11:04:27.247Z,4590
2017-05-28T11:05:42.758Z,4570
2017-05-28T11:06:58.261Z,4230
2017-05-28T11:08:13.751Z,4035
2017-05-28T11:09:29.824Z,4290
2017-05-28T11:10:45.581Z,4605
2017-05-28T11:12:01.091Z,4915
2017-05-28T11:13:16.593Z,4930
2017-05-28T11:14:32.181Z,4810
2017-05-28T11:15:47.696Z,4830
2017-05-28T11:17:01.840Z,4810
2017-05-28T11:18:17.309Z,5015
2017-05-28T11:19:33.067Z,5290
2017-05-28T11:20:48.572Z,5365
2017-05-28T11:22:04.110Z,5370
2017-05-28T11:23:16.855Z,5280
2017-05-28T11:24:32.490Z,5290
2017-05-28T11:25:47.969Z,5190
2017-05-28T11:27:03.705Z,4925
2017-05-28T11:28:19.208Z,4540
2017-05-28T11:29:34.962Z,4370
2017-05-28T11:30:50.452Z,4515
2017-05-28T11:32:05.918Z,4855
2017-05-28T11:33:21.451Z,5190
2017-05-28T11:34:37.266Z,5075
2017-05-28T11:35:53.039Z,4825
2017-05-28T11:37:08.620Z,4805
2017-05-28T11:38:24.363Z,4595
2017-05-28T11:39:38.887Z,4535
2017-05-28T11:40:54.672Z,4555
2017-05-28T11:42:10.139Z,4410
2017-05-28T11:43:25.981Z,4415
2017-05-28T11:44:41.688Z,4490
2017-05-28T11:45:57.401Z,4550
2017-05-28T11:47:12.904Z,4765
2017-05-28T11:48:28.373Z,4745
2017-05-28T11:49:43.795Z,4640
2017-05-28T11:50:59.303Z,4570
2017-05-28T11:52:14.826Z,4625
2017-05-28T11:53:30.361Z,4665
2017-05-28T11:54:46.112Z,4645
2017-05-28T11:56:00.288Z,4660
2017-05-28T11:57:15.731Z,4700
2017-05-28T11:58:29.861Z,4685
2017-05-28T11:59:45.546Z,4740
2017-05-28T12:01:01.079Z,4940
2017-05-28T12:02:16.598Z,5065
2017-05-28T12:03:30.768Z,5085
2017-05-28T12:04:46.480Z,4960
2017-05-28T12:06:01.988Z,4740
2017-05-28T12:07:17.479Z,4495
2017-05-28T12:08:33.019Z,4395
2017-05-28T12:09:48.731Z,4600
2017-05-28T12:11:04.220Z,4870
2017-05-28T12:12:19.680Z,4975
2017-05-28T12:13:35.511Z,4755
2017-05-28T12:14:51.481Z,3545
2017-05-28T12:16:07.084Z,3620
2017-05-28T12:17:22.577Z,3610
2017-05-28T12:18:38.305Z,4780
2017-05-28T12:19:54.020Z,5195
2017-05-28T12:21:09.519Z,5320
2017-05-28T12:22:25.186Z,5280
2017-05-28T12:23:40.628Z,5010
2017-05-28T12:24:56.299Z,4080
2017-05-28T12:26:10.374Z,4420
2017-05-28T12:27:25.968Z,4990
2017-05-28T12:28:41.480Z,5120
2017-05-28T12:29:57.235Z,5045
2017-05-28T12:31:12.766Z,5000
2017-05-28T12:32:28.305Z,4585
2017-05-28T12:33:43.836Z,3660
2017-05-28T12:34:59.556Z,3920
2017-05-28T12:36:15.615Z,4060
2017-05-28T12:37:31.343Z,4005
2017-05-28T12:38:46.803Z,3855
2017-05-28T12:40:02.512Z,3770
2017-05-28T12:41:18.064Z,3900
2017-05-28T12:42:31.111Z,4165
2017-05-28T12:43:46.716Z,4200
2017-05-28T12:45:02.217Z,4480
2017-05-28T12:46:17.895Z,4440
2017-05-28T12:47:32.091Z,4110
2017-05-28T12:48:47.623Z,4070
2017-05-28T12:50:01.875Z,3995
2017-05-28T12:51:17.610Z,4355
2017-05-28T12:52:33.104Z,2960
2017-05-28T12:54:19.639Z,2200
2017-05-28T12:55:35.179Z,2735
2017-05-28T12:56:50.989Z,3850
2017-05-28T12:58:06.503Z,4315
2017-05-28T12:59:21.948Z,3915
2017-05-28T13:00:37.542Z,2680
2017-05-28T13:01:53.280Z,3535
2017-05-28T13:03:08.755Z,2725
2017-05-28T13:04:24.259Z,3165
2017-05-28T13:05:38.757Z,3635
2017-05-28T13:06:54.440Z,3870
2017-05-28T13:08:10.177Z,3710
2017-05-28T13:09:25.676Z,3670
2017-05-28T13:10:41.507Z,3665
2017-05-28T13:11:55.912Z,3830
2017-05-28T13:13:11.479Z,3385
2017-05-28T13:14:26.934Z,3045
2017-05-28T13:15:42.575Z,3540
2017-05-28T13:16:58.259Z,3635
2017-05-28T13:18:13.758Z,2550
2017-05-28T13:19:29.271Z,3415
2017-05-28T13:20:44.823Z,3145
2017-05-28T13:22:00.534Z,2525
2017-05-28T13:23:14.775Z,1515
2017-05-28T13:24:30.212Z,1275
2017-05-28T13:25:44.190Z,1040
2017-05-28T13:26:59.906Z,1055
2017-05-28T13:28:15.457Z,1130
2017-05-28T13:29:29.598Z,1215
2017-05-28T13:30:45.034Z,1125
2017-05-28T13:32:00.787Z,2195
2017-05-28T13:33:15.079Z,1205
2017-05-28T13:34:29.263Z,935
2017-05-28T13:35:44.737Z,710
2017-05-28T13:37:00.405Z,495
2017-05-28T13:38:15.849Z,350
2017-05-28T13:39:30.040Z,275
2017-05-28T13:40:44.266Z,235
2017-05-28T13:41:59.963Z,205
2017-05-28T13:43:15.493Z,195
2017-05-28T13:44:29.514Z,185
2017-05-28T13:45:43.709Z,170
2017-05-28T13:46:58.018Z,160
2017-05-28T13:48:13.484Z,150
2017-05-28T13:49:29.012Z,150
2017-05-28T13:50:44.493Z,160
2017-05-28T13:51:58.869Z,165
2017-05-28T13:53:14.561Z,175
2017-05-28T13:54:28.637Z,185
2017-05-28T13:55:44.128Z,200
2017-05-28T13:56:58.245Z,220
2017-05-28T13:58:13.932Z,255
2017-05-28T13:59:29.446Z,300
2017-05-28T14:00:44.967Z,385
2017-05-28T14:02:00.465Z,655
2017-05-28T14:03:14.810Z,2075
2017-05-28T14:04:30.309Z,785
2017-05-28T14:05:45.729Z,710
2017-05-28T14:07:01.604Z,675
2017-05-28T14:08:17.305Z,1320
2017-05-28T14:09:32.747Z,805
2017-05-28T14:10:46.920Z,1030
2017-05-28T14:12:01.153Z,2585
2017-05-28T14:13:16.867Z,1705
2017-05-28T14:14:32.316Z,1135
2017-05-28T14:15:47.804Z,695
2017-05-28T14:17:03.333Z,510
2017-05-28T14:18:19.073Z,455
2017-05-28T14:19:34.506Z,400
2017-05-28T14:20:50.037Z,400
2017-05-28T14:22:05.601Z,440
2017-05-28T14:23:21.301Z,455
2017-05-28T14:24:36.802Z,510
2017-05-28T14:25:52.298Z,515
2017-05-28T14:27:06.537Z,535
2017-05-28T14:28:20.895Z,560
2017-05-28T14:29:36.374Z,615
2017-05-28T14:30:51.838Z,685
2017-05-28T14:32:06.077Z,895
2017-05-28T14:33:21.873Z,660
2017-05-28T14:34:37.467Z,600
2017-05-28T14:35:52.988Z,560
2017-05-28T14:37:08.456Z,645
2017-05-28T14:38:22.911Z,810
2017-05-28T14:39:39.243Z,825
2017-05-28T14:40:54.670Z,830
2017-05-28T14:42:08.857Z,765
2017-05-28T14:43:24.519Z,710
2017-05-28T14:44:40.040Z,645
2017-05-28T14:45:55.566Z,580
2017-05-28T14:47:11.028Z,520
2017-05-28T14:48:25.303Z,465
2017-05-28T14:49:40.718Z,415
2017-05-28T14:50:56.244Z,375
2017-05-28T14:52:11.780Z,350
2017-05-28T14:53:27.518Z,340
2017-05-28T14:54:43.054Z,340
2017-05-28T14:55:57.235Z,360
2017-05-28T14:57:12.745Z,390
2017-05-28T14:58:28.659Z,440
2017-05-28T14:59:44.172Z,515
2017-05-28T15:00:59.704Z,730
2017-05-28T15:02:13.885Z,730
2017-05-28T15:03:29.924Z,710
2017-05-28T15:04:45.360Z,720
2017-05-28T15:06:00.993Z,680
2017-05-28T15:07:16.467Z,710
2017-05-28T15:08:32.145Z,720
2017-05-28T15:09:47.702Z,720
2017-05-28T15:11:03.216Z,705
2017-05-28T15:12:18.689Z,680
2017-05-28T15:13:33.137Z,660
2017-05-28T15:14:48.522Z,640
2017-05-28T15:16:03.962Z,625
2017-05-28T15:17:19.487Z,610
2017-05-28T15:18:35.271Z,605
2017-05-28T15:19:50.830Z,600
2017-05-28T15:21:06.284Z,590
2017-05-28T15:22:21.838Z,585
2017-05-28T15:23:37.590Z,575
2017-05-28T15:24:53.033Z,570
2017-05-28T15:26:08.609Z,570
2017-05-28T15:27:22.763Z,580
2017-05-28T15:28:37.141Z,570
2017-05-28T15:29:52.655Z,570
2017-05-28T15:31:08.164Z,570
2017-05-28T15:32:23.645Z,570
2017-05-28T15:33:37.999Z,580
2017-05-28T15:34:53.461Z,585
2017-05-28T15:36:09.213Z,600
2017-05-28T15:37:24.705Z,605
2017-05-28T15:38:40.370Z,600
2017-05-28T15:39:55.853Z,605
2017-05-28T15:41:09.929Z,600
2017-05-28T15:42:25.383Z,590
2017-05-28T15:43:41.142Z,580
2017-05-28T15:44:56.605Z,560
2017-05-28T15:46:12.101Z,540
2017-05-28T15:47:27.623Z,525
2017-05-28T15:48:41.905Z,520
2017-05-28T15:49:57.382Z,525
2017-05-28T15:51:13.175Z,535
2017-05-28T15:52:28.651Z,545
2017-05-28T15:53:44.358Z,550
2017-05-28T15:54:59.823Z,560
2017-05-28T15:56:15.321Z,560
2017-05-28T15:57:30.749Z,575
2017-05-28T15:58:46.492Z,595
2017-05-28T16:00:01.947Z,600
2017-05-28T16:01:17.432Z,615
2017-05-28T16:02:33.173Z,640
2017-05-28T16:03:48.882Z,655
2017-05-28T16:05:04.827Z,675
2017-05-28T16:06:20.321Z,685
2017-05-28T16:07:35.512Z,690
2017-05-28T16:08:51.245Z,670
2017-05-28T16:10:05.468Z,610
2017-05-28T16:11:19.499Z,590
2017-05-28T16:12:35.009Z,570
2017-05-28T16:13:50.732Z,540
2017-05-28T16:15:06.196Z,505
2017-05-28T16:16:21.895Z,465
2017-05-28T16:17:37.367Z,440
2017-05-28T16:18:53.304Z,430
2017-05-28T16:20:08.847Z,435
2017-05-28T16:21:24.235Z,430
2017-05-28T16:22:39.704Z,415
2017-05-28T16:24:26.120Z,415
2017-05-28T16:25:41.308Z,400
2017-05-28T16:26:56.781Z,385
2017-05-28T16:28:11.185Z,380
2017-05-28T16:29:26.813Z,385
2017-05-28T16:30:42.308Z,380
2017-05-28T16:31:56.513Z,385
2017-05-28T16:33:12.000Z,380
2017-05-28T16:34:27.714Z,385
2017-05-28T16:35:43.175Z,380
2017-05-28T16:36:58.693Z,375
2017-05-28T16:38:14.420Z,355
2017-05-28T16:39:30.228Z,345
2017-05-28T16:40:45.765Z,345
2017-05-28T16:41:59.910Z,345
2017-05-28T16:43:14.025Z,355
2017-05-28T16:44:29.777Z,355
2017-05-28T16:45:44.947Z,350
2017-05-28T16:46:59.151Z,345
2017-05-28T16:48:14.668Z,335
2017-05-28T16:49:30.338Z,325
2017-05-28T16:50:45.929Z,315
2017-05-28T16:52:00.057Z,305
2017-05-28T16:53:15.513Z,300
2017-05-28T16:54:31.191Z,300
2017-05-28T16:55:46.628Z,295
2017-05-28T16:57:00.788Z,290
2017-05-28T16:58:16.254Z,285
2017-05-28T16:59:31.937Z,280
2017-05-28T17:00:47.393Z,270
2017-05-28T17:02:02.858Z,260
2017-05-28T17:03:18.366Z,255
2017-05-28T17:04:34.079Z,250
2017-05-28T17:05:49.710Z,265
2017-05-28T17:07:05.205Z,280
2017-05-28T17:08:20.833Z,295
2017-05-28T17:09:36.599Z,315
2017-05-28T17:10:52.112Z,325
2017-05-28T17:12:07.515Z,320
2017-05-28T17:13:22.892Z,305
2017-05-28T17:14:38.589Z,290
2017-05-28T17:15:52.794Z,275
2017-05-28T17:17:08.309Z,265
2017-05-28T17:18:24.043Z,255
2017-05-28T17:19:39.745Z,250
2017-05-28T17:20:55.184Z,245
2017-05-28T17:22:09.107Z,240